sensor_id;sensor_type;location;lat;lon;timestamp;P1;durP1;ratioP1;P2;durP2;ratioP2
15616;SDS011;7908;51.688;7.130;2023-08-07T00:00:26;3.80;;;1.50;;
15616;SDS011;7908;51.688;7.130;2023-08-07T00:02:54;2.73;;;1.50;;
15616;SDS011;7908;51.688;7.130;2023-08-07T00:05:23;3.37;;;1.30;;
15616;SDS011;7908;51.688;7.130;2023-08-07T00:07:55;2.53;;;1.30;;
15616;SDS011;7908;51.688;7.130;2023-08-07T00:10:25;3.77;;;1.13;;
15616;SDS011;7908;51.688;7.130;2023-08-07T00:12:54;1.40;;;1.00;;
15616;SDS011;7908;51.688;7.130;2023-08-07T00:15:25;1.17;;;0.70;;
15616;SDS011;7908;51.688;7.130;2023-08-07T00:17:53;0.77;;;0.57;;
15616;SDS011;7908;51.688;7.130;2023-08-07T00:20:22;2.73;;;0.87;;
15616;SDS011;7908;51.688;7.130;2023-08-07T00:22:51;2.80;;;1.23;;
15616;SDS011;7908;51.688;7.130;2023-08-07T00:25:21;2.03;;;1.03;;
15616;SDS011;7908;51.688;7.130;2023-08-07T00:27:50;2.57;;;0.80;;
15616;SDS011;7908;51.688;7.130;2023-08-07T00:30:19;2.73;;;0.77;;
15616;SDS011;7908;51.688;7.130;2023-08-07T00:32:48;3.03;;;1.27;;
15616;SDS011;7908;51.688;7.130;2023-08-07T00:35:16;3.50;;;0.60;;
15616;SDS011;7908;51.688;7.130;2023-08-07T00:37:45;1.77;;;0.60;;
15616;SDS011;7908;51.688;7.130;2023-08-07T00:40:14;2.03;;;0.80;;
15616;SDS011;7908;51.688;7.130;2023-08-07T00:42:44;2.37;;;0.77;;
15616;SDS011;7908;51.688;7.130;2023-08-07T00:45:15;1.60;;;0.80;;
15616;SDS011;7908;51.688;7.130;2023-08-07T00:47:44;5.10;;;0.87;;
15616;SDS011;7908;51.688;7.130;2023-08-07T00:50:13;7.87;;;1.10;;
15616;SDS011;7908;51.688;7.130;2023-08-07T00:52:43;1.60;;;0.90;;
15616;SDS011;7908;51.688;7.130;2023-08-07T00:55:12;3.67;;;0.90;;
15616;SDS011;7908;51.688;7.130;2023-08-07T00:57:41;4.07;;;1.20;;
15616;SDS011;7908;51.688;7.130;2023-08-07T01:00:12;2.73;;;1.07;;
15616;SDS011;7908;51.688;7.130;2023-08-07T01:02:43;3.03;;;1.10;;
15616;SDS011;7908;51.688;7.130;2023-08-07T01:05:13;3.90;;;1.27;;
15616;SDS011;7908;51.688;7.130;2023-08-07T01:07:41;5.70;;;2.10;;
15616;SDS011;7908;51.688;7.130;2023-08-07T01:10:10;3.93;;;2.07;;
15616;SDS011;7908;51.688;7.130;2023-08-07T01:12:41;5.30;;;2.47;;
15616;SDS011;7908;51.688;7.130;2023-08-07T01:15:18;8.23;;;3.30;;
15616;SDS011;7908;51.688;7.130;2023-08-07T01:17:50;7.23;;;3.43;;
15616;SDS011;7908;51.688;7.130;2023-08-07T01:20:23;9.03;;;4.10;;
15616;SDS011;7908;51.688;7.130;2023-08-07T01:22:53;8.70;;;4.23;;
15616;SDS011;7908;51.688;7.130;2023-08-07T01:25:23;7.27;;;3.80;;
15616;SDS011;7908;51.688;7.130;2023-08-07T01:27:55;7.57;;;3.80;;
15616;SDS011;7908;51.688;7.130;2023-08-07T01:30:31;3.90;;;2.90;;
15616;SDS011;7908;51.688;7.130;2023-08-07T01:33:08;7.87;;;3.43;;
15616;SDS011;7908;51.688;7.130;2023-08-07T01:35:41;7.47;;;3.93;;
15616;SDS011;7908;51.688;7.130;2023-08-07T01:38:16;7.50;;;4.40;;
15616;SDS011;7908;51.688;7.130;2023-08-07T01:40:47;5.97;;;3.90;;
15616;SDS011;7908;51.688;7.130;2023-08-07T01:43:16;8.93;;;4.30;;
15616;SDS011;7908;51.688;7.130;2023-08-07T01:45:46;7.27;;;4.70;;
15616;SDS011;7908;51.688;7.130;2023-08-07T01:48:15;10.77;;;4.50;;
15616;SDS011;7908;51.688;7.130;2023-08-07T01:50:43;7.87;;;3.60;;
15616;SDS011;7908;51.688;7.130;2023-08-07T01:53:16;4.13;;;2.50;;
15616;SDS011;7908;51.688;7.130;2023-08-07T01:55:45;7.87;;;2.77;;
15616;SDS011;7908;51.688;7.130;2023-08-07T01:58:13;5.63;;;2.77;;
15616;SDS011;7908;51.688;7.130;2023-08-07T02:00:42;6.17;;;2.67;;
15616;SDS011;7908;51.688;7.130;2023-08-07T02:03:11;5.50;;;2.50;;
15616;SDS011;7908;51.688;7.130;2023-08-07T02:05:40;4.57;;;2.57;;
15616;SDS011;7908;51.688;7.130;2023-08-07T02:08:09;6.73;;;3.00;;
15616;SDS011;7908;51.688;7.130;2023-08-07T02:10:40;6.27;;;2.80;;
15616;SDS011;7908;51.688;7.130;2023-08-07T02:13:09;3.30;;;2.10;;
15616;SDS011;7908;51.688;7.130;2023-08-07T02:15:38;6.63;;;2.67;;
15616;SDS011;7908;51.688;7.130;2023-08-07T02:18:07;3.73;;;2.40;;
15616;SDS011;7908;51.688;7.130;2023-08-07T02:20:36;6.60;;;2.27;;
15616;SDS011;7908;51.688;7.130;2023-08-07T02:23:04;5.50;;;2.30;;
15616;SDS011;7908;51.688;7.130;2023-08-07T02:25:34;6.20;;;2.10;;
15616;SDS011;7908;51.688;7.130;2023-08-07T02:28:05;3.53;;;1.97;;
15616;SDS011;7908;51.688;7.130;2023-08-07T02:30:35;4.60;;;2.30;;
15616;SDS011;7908;51.688;7.130;2023-08-07T02:33:03;5.63;;;2.47;;
15616;SDS011;7908;51.688;7.130;2023-08-07T02:35:32;3.80;;;2.00;;
15616;SDS011;7908;51.688;7.130;2023-08-07T02:38:01;4.83;;;1.63;;
15616;SDS011;7908;51.688;7.130;2023-08-07T02:40:29;5.60;;;1.50;;
15616;SDS011;7908;51.688;7.130;2023-08-07T02:42:58;4.23;;;1.77;;
15616;SDS011;7908;51.688;7.130;2023-08-07T02:45:28;2.20;;;1.10;;
15616;SDS011;7908;51.688;7.130;2023-08-07T02:47:56;4.10;;;1.60;;
15616;SDS011;7908;51.688;7.130;2023-08-07T02:50:25;3.33;;;1.20;;
15616;SDS011;7908;51.688;7.130;2023-08-07T02:52:59;1.33;;;1.13;;
15616;SDS011;7908;51.688;7.130;2023-08-07T02:55:28;3.73;;;1.10;;
15616;SDS011;7908;51.688;7.130;2023-08-07T02:57:58;4.10;;;1.13;;
15616;SDS011;7908;51.688;7.130;2023-08-07T03:00:30;2.83;;;1.33;;
15616;SDS011;7908;51.688;7.130;2023-08-07T03:02:59;3.43;;;1.20;;
15616;SDS011;7908;51.688;7.130;2023-08-07T03:05:28;3.67;;;1.47;;
15616;SDS011;7908;51.688;7.130;2023-08-07T03:07:58;3.47;;;1.40;;
15616;SDS011;7908;51.688;7.130;2023-08-07T03:10:27;3.20;;;1.50;;
15616;SDS011;7908;51.688;7.130;2023-08-07T03:12:56;3.83;;;2.07;;
15616;SDS011;7908;51.688;7.130;2023-08-07T03:15:24;4.97;;;2.17;;
15616;SDS011;7908;51.688;7.130;2023-08-07T03:17:54;5.47;;;2.60;;
15616;SDS011;7908;51.688;7.130;2023-08-07T03:20:24;4.83;;;2.70;;
15616;SDS011;7908;51.688;7.130;2023-08-07T03:22:52;6.53;;;2.63;;
15616;SDS011;7908;51.688;7.130;2023-08-07T03:25:22;8.20;;;2.60;;
15616;SDS011;7908;51.688;7.130;2023-08-07T03:27:50;8.03;;;2.47;;
15616;SDS011;7908;51.688;7.130;2023-08-07T03:30:20;6.83;;;2.70;;
15616;SDS011;7908;51.688;7.130;2023-08-07T03:32:49;7.17;;;2.97;;
15616;SDS011;7908;51.688;7.130;2023-08-07T03:35:19;4.77;;;2.27;;
15616;SDS011;7908;51.688;7.130;2023-08-07T03:37:47;6.93;;;2.60;;
15616;SDS011;7908;51.688;7.130;2023-08-07T03:40:17;14.13;;;2.90;;
15616;SDS011;7908;51.688;7.130;2023-08-07T03:42:46;7.37;;;3.00;;
15616;SDS011;7908;51.688;7.130;2023-08-07T03:45:16;11.70;;;3.80;;
15616;SDS011;7908;51.688;7.130;2023-08-07T03:47:46;9.47;;;3.53;;
15616;SDS011;7908;51.688;7.130;2023-08-07T03:50:15;10.47;;;3.43;;
15616;SDS011;7908;51.688;7.130;2023-08-07T03:52:45;11.37;;;3.50;;
15616;SDS011;7908;51.688;7.130;2023-08-07T03:55:14;8.23;;;3.17;;
15616;SDS011;7908;51.688;7.130;2023-08-07T03:57:42;8.40;;;3.77;;
15616;SDS011;7908;51.688;7.130;2023-08-07T04:00:12;10.07;;;4.07;;
15616;SDS011;7908;51.688;7.130;2023-08-07T04:02:42;10.90;;;4.07;;
15616;SDS011;7908;51.688;7.130;2023-08-07T04:05:10;11.47;;;5.00;;
15616;SDS011;7908;51.688;7.130;2023-08-07T04:07:40;11.77;;;4.93;;
15616;SDS011;7908;51.688;7.130;2023-08-07T04:10:10;11.13;;;4.47;;
15616;SDS011;7908;51.688;7.130;2023-08-07T04:12:39;11.27;;;4.40;;
15616;SDS011;7908;51.688;7.130;2023-08-07T04:15:08;7.87;;;4.27;;
15616;SDS011;7908;51.688;7.130;2023-08-07T04:17:37;10.80;;;4.53;;
15616;SDS011;7908;51.688;7.130;2023-08-07T04:20:06;12.63;;;4.60;;
15616;SDS011;7908;51.688;7.130;2023-08-07T04:22:37;14.73;;;4.63;;
15616;SDS011;7908;51.688;7.130;2023-08-07T04:25:06;10.53;;;5.07;;
15616;SDS011;7908;51.688;7.130;2023-08-07T04:27:40;11.93;;;5.40;;
15616;SDS011;7908;51.688;7.130;2023-08-07T04:30:09;12.97;;;6.10;;
15616;SDS011;7908;51.688;7.130;2023-08-07T04:32:39;13.07;;;6.10;;
15616;SDS011;7908;51.688;7.130;2023-08-07T04:35:08;17.53;;;6.53;;
15616;SDS011;7908;51.688;7.130;2023-08-07T04:37:37;15.57;;;6.00;;
15616;SDS011;7908;51.688;7.130;2023-08-07T04:40:07;12.93;;;6.63;;
15616;SDS011;7908;51.688;7.130;2023-08-07T04:42:40;19.97;;;6.10;;
15616;SDS011;7908;51.688;7.130;2023-08-07T04:45:10;19.00;;;6.67;;
15616;SDS011;7908;51.688;7.130;2023-08-07T04:47:39;19.83;;;8.23;;
15616;SDS011;7908;51.688;7.130;2023-08-07T04:50:08;18.73;;;6.57;;
15616;SDS011;7908;51.688;7.130;2023-08-07T04:52:37;19.60;;;7.57;;
15616;SDS011;7908;51.688;7.130;2023-08-07T04:55:06;16.60;;;6.43;;
15616;SDS011;7908;51.688;7.130;2023-08-07T04:57:36;14.07;;;5.80;;
15616;SDS011;7908;51.688;7.130;2023-08-07T05:00:09;13.53;;;6.53;;
15616;SDS011;7908;51.688;7.130;2023-08-07T05:02:38;15.67;;;5.90;;
15616;SDS011;7908;51.688;7.130;2023-08-07T05:05:07;11.70;;;5.40;;
15616;SDS011;7908;51.688;7.130;2023-08-07T05:07:37;9.37;;;4.70;;
15616;SDS011;7908;51.688;7.130;2023-08-07T05:10:06;10.80;;;5.13;;
15616;SDS011;7908;51.688;7.130;2023-08-07T05:12:34;14.37;;;4.77;;
15616;SDS011;7908;51.688;7.130;2023-08-07T05:15:05;9.10;;;3.70;;
15616;SDS011;7908;51.688;7.130;2023-08-07T05:17:36;13.20;;;4.23;;
15616;SDS011;7908;51.688;7.130;2023-08-07T05:20:06;8.03;;;3.33;;
15616;SDS011;7908;51.688;7.130;2023-08-07T05:22:36;9.97;;;3.60;;
15616;SDS011;7908;51.688;7.130;2023-08-07T05:25:05;7.50;;;3.47;;
15616;SDS011;7908;51.688;7.130;2023-08-07T05:27:36;11.03;;;3.43;;
15616;SDS011;7908;51.688;7.130;2023-08-07T05:30:05;8.97;;;3.80;;
15616;SDS011;7908;51.688;7.130;2023-08-07T05:32:37;8.47;;;4.27;;
15616;SDS011;7908;51.688;7.130;2023-08-07T05:35:06;10.27;;;4.80;;
15616;SDS011;7908;51.688;7.130;2023-08-07T05:37:36;11.27;;;4.30;;
15616;SDS011;7908;51.688;7.130;2023-08-07T05:40:06;10.50;;;4.37;;
15616;SDS011;7908;51.688;7.130;2023-08-07T05:42:39;13.07;;;5.00;;
15616;SDS011;7908;51.688;7.130;2023-08-07T05:45:09;9.17;;;4.23;;
15616;SDS011;7908;51.688;7.130;2023-08-07T05:47:39;7.30;;;4.30;;
15616;SDS011;7908;51.688;7.130;2023-08-07T05:50:09;10.03;;;4.77;;
15616;SDS011;7908;51.688;7.130;2023-08-07T05:52:39;12.93;;;5.17;;
15616;SDS011;7908;51.688;7.130;2023-08-07T05:55:08;15.60;;;5.30;;
15616;SDS011;7908;51.688;7.130;2023-08-07T05:57:37;9.40;;;4.63;;
15616;SDS011;7908;51.688;7.130;2023-08-07T06:00:07;14.90;;;5.10;;
15616;SDS011;7908;51.688;7.130;2023-08-07T06:02:42;8.47;;;5.17;;
15616;SDS011;7908;51.688;7.130;2023-08-07T06:05:15;10.97;;;5.73;;
15616;SDS011;7908;51.688;7.130;2023-08-07T06:07:45;11.20;;;5.37;;
15616;SDS011;7908;51.688;7.130;2023-08-07T06:10:15;10.03;;;5.73;;
15616;SDS011;7908;51.688;7.130;2023-08-07T06:12:44;10.43;;;5.27;;
15616;SDS011;7908;51.688;7.130;2023-08-07T06:15:13;11.90;;;5.40;;
15616;SDS011;7908;51.688;7.130;2023-08-07T06:17:43;8.47;;;4.90;;
15616;SDS011;7908;51.688;7.130;2023-08-07T06:20:12;14.67;;;5.10;;
15616;SDS011;7908;51.688;7.130;2023-08-07T06:22:42;12.13;;;5.57;;
15616;SDS011;7908;51.688;7.130;2023-08-07T06:25:11;10.67;;;5.03;;
15616;SDS011;7908;51.688;7.130;2023-08-07T06:27:39;10.40;;;4.37;;
15616;SDS011;7908;51.688;7.130;2023-08-07T06:30:09;12.13;;;4.37;;
15616;SDS011;7908;51.688;7.130;2023-08-07T06:32:39;7.03;;;4.07;;
15616;SDS011;7908;51.688;7.130;2023-08-07T06:35:10;9.17;;;4.13;;
15616;SDS011;7908;51.688;7.130;2023-08-07T06:37:39;13.33;;;5.20;;
15616;SDS011;7908;51.688;7.130;2023-08-07T06:40:09;8.73;;;4.00;;
15616;SDS011;7908;51.688;7.130;2023-08-07T06:42:38;6.60;;;3.50;;
15616;SDS011;7908;51.688;7.130;2023-08-07T06:45:09;5.60;;;2.77;;
15616;SDS011;7908;51.688;7.130;2023-08-07T06:47:38;12.83;;;3.67;;
15616;SDS011;7908;51.688;7.130;2023-08-07T06:50:07;8.77;;;3.07;;
15616;SDS011;7908;51.688;7.130;2023-08-07T06:52:41;7.00;;;3.40;;
15616;SDS011;7908;51.688;7.130;2023-08-07T06:55:09;8.50;;;2.90;;
15616;SDS011;7908;51.688;7.130;2023-08-07T06:57:38;7.27;;;3.13;;
15616;SDS011;7908;51.688;7.130;2023-08-07T07:00:09;5.83;;;3.30;;
15616;SDS011;7908;51.688;7.130;2023-08-07T07:02:38;5.73;;;3.20;;
15616;SDS011;7908;51.688;7.130;2023-08-07T07:05:07;6.23;;;2.97;;
15616;SDS011;7908;51.688;7.130;2023-08-07T07:07:37;9.33;;;3.50;;
15616;SDS011;7908;51.688;7.130;2023-08-07T07:10:09;7.27;;;3.60;;
15616;SDS011;7908;51.688;7.130;2023-08-07T07:12:38;6.97;;;3.77;;
15616;SDS011;7908;51.688;7.130;2023-08-07T07:15:08;7.10;;;3.90;;
15616;SDS011;7908;51.688;7.130;2023-08-07T07:17:39;8.87;;;4.53;;
15616;SDS011;7908;51.688;7.130;2023-08-07T07:20:10;6.90;;;3.20;;
15616;SDS011;7908;51.688;7.130;2023-08-07T07:22:39;9.50;;;4.03;;
15616;SDS011;7908;51.688;7.130;2023-08-07T07:25:13;5.43;;;3.40;;
15616;SDS011;7908;51.688;7.130;2023-08-07T07:27:42;9.60;;;4.17;;
15616;SDS011;7908;51.688;7.130;2023-08-07T07:30:13;6.57;;;4.23;;
15616;SDS011;7908;51.688;7.130;2023-08-07T07:32:43;8.77;;;5.20;;
15616;SDS011;7908;51.688;7.130;2023-08-07T07:35:12;5.60;;;3.37;;
15616;SDS011;7908;51.688;7.130;2023-08-07T07:37:41;6.37;;;3.20;;
15616;SDS011;7908;51.688;7.130;2023-08-07T07:40:12;5.80;;;2.83;;
15616;SDS011;7908;51.688;7.130;2023-08-07T07:42:41;4.33;;;2.60;;
15616;SDS011;7908;51.688;7.130;2023-08-07T07:45:10;6.97;;;2.70;;
15616;SDS011;7908;51.688;7.130;2023-08-07T07:47:39;4.63;;;2.80;;
15616;SDS011;7908;51.688;7.130;2023-08-07T07:50:08;7.37;;;3.00;;
15616;SDS011;7908;51.688;7.130;2023-08-07T07:52:40;7.93;;;3.30;;
15616;SDS011;7908;51.688;7.130;2023-08-07T07:55:10;8.97;;;4.00;;
15616;SDS011;7908;51.688;7.130;2023-08-07T07:57:43;9.17;;;3.40;;
15616;SDS011;7908;51.688;7.130;2023-08-07T08:00:12;7.83;;;3.10;;
15616;SDS011;7908;51.688;7.130;2023-08-07T08:02:42;9.43;;;3.30;;
15616;SDS011;7908;51.688;7.130;2023-08-07T08:05:11;6.80;;;2.70;;
15616;SDS011;7908;51.688;7.130;2023-08-07T08:07:43;8.90;;;2.60;;
15616;SDS011;7908;51.688;7.130;2023-08-07T08:10:13;6.00;;;2.47;;
15616;SDS011;7908;51.688;7.130;2023-08-07T08:12:41;4.53;;;2.50;;
15616;SDS011;7908;51.688;7.130;2023-08-07T08:15:10;6.67;;;2.20;;
15616;SDS011;7908;51.688;7.130;2023-08-07T08:17:39;4.73;;;2.40;;
15616;SDS011;7908;51.688;7.130;2023-08-07T08:20:08;5.70;;;2.63;;
15616;SDS011;7908;51.688;7.130;2023-08-07T08:22:38;5.23;;;2.50;;
15616;SDS011;7908;51.688;7.130;2023-08-07T08:25:08;5.43;;;2.27;;
15616;SDS011;7908;51.688;7.130;2023-08-07T08:27:39;8.33;;;2.50;;
15616;SDS011;7908;51.688;7.130;2023-08-07T08:30:08;6.27;;;2.70;;
15616;SDS011;7908;51.688;7.130;2023-08-07T08:32:37;7.73;;;2.50;;
15616;SDS011;7908;51.688;7.130;2023-08-07T08:35:07;9.63;;;3.37;;
15616;SDS011;7908;51.688;7.130;2023-08-07T08:37:37;4.83;;;2.27;;
15616;SDS011;7908;51.688;7.130;2023-08-07T08:40:06;8.43;;;2.80;;
15616;SDS011;7908;51.688;7.130;2023-08-07T08:42:39;9.13;;;2.87;;
15616;SDS011;7908;51.688;7.130;2023-08-07T08:45:09;7.80;;;3.40;;
15616;SDS011;7908;51.688;7.130;2023-08-07T08:47:43;5.93;;;2.73;;
15616;SDS011;7908;51.688;7.130;2023-08-07T08:50:14;6.13;;;2.83;;
15616;SDS011;7908;51.688;7.130;2023-08-07T08:52:44;10.20;;;3.37;;
15616;SDS011;7908;51.688;7.130;2023-08-07T08:55:13;9.63;;;3.33;;
15616;SDS011;7908;51.688;7.130;2023-08-07T08:57:44;9.83;;;3.37;;
15616;SDS011;7908;51.688;7.130;2023-08-07T09:00:13;11.17;;;3.27;;
15616;SDS011;7908;51.688;7.130;2023-08-07T09:02:45;7.70;;;2.87;;
15616;SDS011;7908;51.688;7.130;2023-08-07T09:05:18;9.53;;;3.47;;
15616;SDS011;7908;51.688;7.130;2023-08-07T09:07:49;7.43;;;3.10;;
15616;SDS011;7908;51.688;7.130;2023-08-07T09:10:18;6.17;;;2.70;;
15616;SDS011;7908;51.688;7.130;2023-08-07T09:12:52;8.30;;;3.00;;
15616;SDS011;7908;51.688;7.130;2023-08-07T09:15:22;10.03;;;3.00;;
15616;SDS011;7908;51.688;7.130;2023-08-07T09:17:52;9.97;;;2.80;;
15616;SDS011;7908;51.688;7.130;2023-08-07T09:20:23;8.63;;;3.30;;
15616;SDS011;7908;51.688;7.130;2023-08-07T09:22:55;8.47;;;2.87;;
15616;SDS011;7908;51.688;7.130;2023-08-07T09:25:27;8.17;;;2.87;;
15616;SDS011;7908;51.688;7.130;2023-08-07T09:27:57;11.47;;;3.10;;
15616;SDS011;7908;51.688;7.130;2023-08-07T09:30:26;6.47;;;2.87;;
15616;SDS011;7908;51.688;7.130;2023-08-07T09:32:57;7.97;;;2.70;;
15616;SDS011;7908;51.688;7.130;2023-08-07T09:35:27;11.20;;;3.00;;
15616;SDS011;7908;51.688;7.130;2023-08-07T09:37:58;9.43;;;2.70;;
15616;SDS011;7908;51.688;7.130;2023-08-07T09:40:29;8.37;;;3.17;;
15616;SDS011;7908;51.688;7.130;2023-08-07T09:43:00;10.17;;;2.93;;
15616;SDS011;7908;51.688;7.130;2023-08-07T09:45:30;9.47;;;3.23;;
15616;SDS011;7908;51.688;7.130;2023-08-07T09:48:00;9.10;;;2.70;;
15616;SDS011;7908;51.688;7.130;2023-08-07T09:50:32;7.13;;;2.50;;
15616;SDS011;7908;51.688;7.130;2023-08-07T09:53:02;7.20;;;2.43;;
15616;SDS011;7908;51.688;7.130;2023-08-07T09:55:33;11.03;;;2.77;;
15616;SDS011;7908;51.688;7.130;2023-08-07T09:58:04;9.63;;;2.50;;
15616;SDS011;7908;51.688;7.130;2023-08-07T10:00:37;8.40;;;2.83;;
15616;SDS011;7908;51.688;7.130;2023-08-07T10:03:07;8.77;;;2.77;;
15616;SDS011;7908;51.688;7.130;2023-08-07T10:05:37;7.07;;;2.93;;
15616;SDS011;7908;51.688;7.130;2023-08-07T10:08:06;5.07;;;2.53;;
15616;SDS011;7908;51.688;7.130;2023-08-07T10:10:38;7.00;;;2.47;;
15616;SDS011;7908;51.688;7.130;2023-08-07T10:13:09;8.23;;;2.63;;
15616;SDS011;7908;51.688;7.130;2023-08-07T10:15:46;10.47;;;3.47;;
15616;SDS011;7908;51.688;7.130;2023-08-07T10:18:18;9.50;;;2.90;;
15616;SDS011;7908;51.688;7.130;2023-08-07T10:20:49;7.63;;;2.80;;
15616;SDS011;7908;51.688;7.130;2023-08-07T10:23:19;12.47;;;3.23;;
15616;SDS011;7908;51.688;7.130;2023-08-07T10:25:50;8.97;;;2.90;;
15616;SDS011;7908;51.688;7.130;2023-08-07T10:28:22;8.67;;;2.83;;
15616;SDS011;7908;51.688;7.130;2023-08-07T10:30:55;8.63;;;2.87;;
15616;SDS011;7908;51.688;7.130;2023-08-07T10:33:25;8.57;;;3.00;;
15616;SDS011;7908;51.688;7.130;2023-08-07T10:35:57;10.03;;;2.90;;
15616;SDS011;7908;51.688;7.130;2023-08-07T10:38:29;8.93;;;2.60;;
15616;SDS011;7908;51.688;7.130;2023-08-07T10:40:58;7.93;;;2.50;;
15616;SDS011;7908;51.688;7.130;2023-08-07T10:43:30;6.87;;;2.50;;
15616;SDS011;7908;51.688;7.130;2023-08-07T10:46:06;10.87;;;2.90;;
15616;SDS011;7908;51.688;7.130;2023-08-07T10:48:43;8.93;;;2.97;;
15616;SDS011;7908;51.688;7.130;2023-08-07T10:51:14;6.47;;;2.57;;
15616;SDS011;7908;51.688;7.130;2023-08-07T10:53:46;8.80;;;2.37;;
15616;SDS011;7908;51.688;7.130;2023-08-07T10:56:19;6.17;;;2.13;;
15616;SDS011;7908;51.688;7.130;2023-08-07T10:59:06;7.00;;;2.60;;
15616;SDS011;7908;51.688;7.130;2023-08-07T11:01:40;6.37;;;2.50;;
15616;SDS011;7908;51.688;7.130;2023-08-07T11:04:10;9.77;;;2.80;;
15616;SDS011;7908;51.688;7.130;2023-08-07T11:06:41;7.17;;;2.37;;
15616;SDS011;7908;51.688;7.130;2023-08-07T11:09:11;9.40;;;2.67;;
15616;SDS011;7908;51.688;7.130;2023-08-07T11:11:40;7.00;;;2.60;;
15616;SDS011;7908;51.688;7.130;2023-08-07T11:14:17;4.70;;;2.37;;
15616;SDS011;7908;51.688;7.130;2023-08-07T11:16:48;8.93;;;2.20;;
15616;SDS011;7908;51.688;7.130;2023-08-07T11:19:17;6.67;;;2.30;;
15616;SDS011;7908;51.688;7.130;2023-08-07T11:21:50;6.10;;;2.20;;
15616;SDS011;7908;51.688;7.130;2023-08-07T11:24:23;8.17;;;2.50;;
15616;SDS011;7908;51.688;7.130;2023-08-07T11:27:03;6.33;;;2.53;;
15616;SDS011;7908;51.688;7.130;2023-08-07T11:29:35;8.43;;;2.90;;
15616;SDS011;7908;51.688;7.130;2023-08-07T11:32:08;10.37;;;2.30;;
15616;SDS011;7908;51.688;7.130;2023-08-07T11:34:37;6.40;;;2.40;;
15616;SDS011;7908;51.688;7.130;2023-08-07T11:37:06;5.93;;;2.00;;
15616;SDS011;7908;51.688;7.130;2023-08-07T11:39:41;6.70;;;2.67;;
15616;SDS011;7908;51.688;7.130;2023-08-07T11:42:10;6.70;;;2.47;;
15616;SDS011;7908;51.688;7.130;2023-08-07T11:44:45;8.67;;;2.00;;
15616;SDS011;7908;51.688;7.130;2023-08-07T11:47:14;5.43;;;1.80;;
15616;SDS011;7908;51.688;7.130;2023-08-07T11:49:44;7.87;;;1.93;;
15616;SDS011;7908;51.688;7.130;2023-08-07T11:52:14;6.70;;;1.83;;
15616;SDS011;7908;51.688;7.130;2023-08-07T11:54:46;6.30;;;1.83;;
15616;SDS011;7908;51.688;7.130;2023-08-07T11:57:17;4.63;;;1.80;;
15616;SDS011;7908;51.688;7.130;2023-08-07T11:59:51;5.33;;;2.20;;
15616;SDS011;7908;51.688;7.130;2023-08-07T12:02:24;5.30;;;1.60;;
15616;SDS011;7908;51.688;7.130;2023-08-07T12:04:57;5.80;;;1.90;;
15616;SDS011;7908;51.688;7.130;2023-08-07T12:07:27;5.70;;;1.73;;
15616;SDS011;7908;51.688;7.130;2023-08-07T12:09:59;5.40;;;1.40;;
15616;SDS011;7908;51.688;7.130;2023-08-07T12:12:34;5.50;;;1.33;;
15616;SDS011;7908;51.688;7.130;2023-08-07T12:15:12;4.73;;;1.53;;
15616;SDS011;7908;51.688;7.130;2023-08-07T12:17:47;6.33;;;1.80;;
15616;SDS011;7908;51.688;7.130;2023-08-07T12:20:16;4.50;;;2.00;;
15616;SDS011;7908;51.688;7.130;2023-08-07T12:22:46;7.50;;;2.17;;
15616;SDS011;7908;51.688;7.130;2023-08-07T12:25:16;4.50;;;1.60;;
15616;SDS011;7908;51.688;7.130;2023-08-07T12:27:45;5.73;;;2.07;;
15616;SDS011;7908;51.688;7.130;2023-08-07T12:30:17;7.63;;;2.10;;
15616;SDS011;7908;51.688;7.130;2023-08-07T12:32:47;6.20;;;1.80;;
15616;SDS011;7908;51.688;7.130;2023-08-07T12:35:18;5.77;;;1.67;;
15616;SDS011;7908;51.688;7.130;2023-08-07T12:37:48;5.73;;;1.87;;
15616;SDS011;7908;51.688;7.130;2023-08-07T12:40:17;7.27;;;1.90;;
15616;SDS011;7908;51.688;7.130;2023-08-07T12:42:50;5.17;;;1.70;;
15616;SDS011;7908;51.688;7.130;2023-08-07T12:45:20;5.27;;;1.77;;
15616;SDS011;7908;51.688;7.130;2023-08-07T12:48:09;5.57;;;1.97;;
15616;SDS011;7908;51.688;7.130;2023-08-07T12:50:40;4.70;;;2.00;;
15616;SDS011;7908;51.688;7.130;2023-08-07T12:53:08;4.40;;;2.20;;
15616;SDS011;7908;51.688;7.130;2023-08-07T12:55:38;6.60;;;2.13;;
15616;SDS011;7908;51.688;7.130;2023-08-07T12:58:06;2.13;;;1.40;;
15616;SDS011;7908;51.688;7.130;2023-08-07T13:00:38;3.27;;;1.47;;
15616;SDS011;7908;51.688;7.130;2023-08-07T13:03:07;4.67;;;2.10;;
15616;SDS011;7908;51.688;7.130;2023-08-07T13:05:37;4.50;;;1.63;;
15616;SDS011;7908;51.688;7.130;2023-08-07T13:08:07;5.03;;;1.80;;
15616;SDS011;7908;51.688;7.130;2023-08-07T13:10:38;6.83;;;2.13;;
15616;SDS011;7908;51.688;7.130;2023-08-07T13:13:07;5.13;;;1.80;;
15616;SDS011;7908;51.688;7.130;2023-08-07T13:15:35;8.23;;;2.17;;
15616;SDS011;7908;51.688;7.130;2023-08-07T13:18:06;7.30;;;1.90;;
15616;SDS011;7908;51.688;7.130;2023-08-07T13:20:35;5.37;;;2.00;;
15616;SDS011;7908;51.688;7.130;2023-08-07T13:23:04;9.27;;;2.10;;
15616;SDS011;7908;51.688;7.130;2023-08-07T13:25:35;5.70;;;1.63;;
15616;SDS011;7908;51.688;7.130;2023-08-07T13:28:04;6.07;;;2.10;;
15616;SDS011;7908;51.688;7.130;2023-08-07T13:30:34;4.47;;;1.93;;
15616;SDS011;7908;51.688;7.130;2023-08-07T13:33:05;5.97;;;1.67;;
15616;SDS011;7908;51.688;7.130;2023-08-07T13:35:34;8.47;;;1.90;;
15616;SDS011;7908;51.688;7.130;2023-08-07T13:38:04;7.20;;;1.80;;
15616;SDS011;7908;51.688;7.130;2023-08-07T13:40:34;6.20;;;2.00;;
15616;SDS011;7908;51.688;7.130;2023-08-07T13:43:03;5.93;;;1.80;;
15616;SDS011;7908;51.688;7.130;2023-08-07T13:45:36;4.73;;;2.20;;
15616;SDS011;7908;51.688;7.130;2023-08-07T13:48:09;5.73;;;2.10;;
15616;SDS011;7908;51.688;7.130;2023-08-07T13:50:38;6.73;;;2.20;;
15616;SDS011;7908;51.688;7.130;2023-08-07T13:53:07;7.47;;;2.70;;
15616;SDS011;7908;51.688;7.130;2023-08-07T13:55:41;7.33;;;2.50;;
15616;SDS011;7908;51.688;7.130;2023-08-07T13:58:12;5.47;;;2.90;;
15616;SDS011;7908;51.688;7.130;2023-08-07T14:00:43;6.07;;;2.33;;
15616;SDS011;7908;51.688;7.130;2023-08-07T14:03:28;8.30;;;2.70;;
15616;SDS011;7908;51.688;7.130;2023-08-07T14:05:57;9.07;;;3.00;;
15616;SDS011;7908;51.688;7.130;2023-08-07T14:08:26;5.07;;;2.20;;
15616;SDS011;7908;51.688;7.130;2023-08-07T14:10:55;8.30;;;2.30;;
15616;SDS011;7908;51.688;7.130;2023-08-07T14:13:25;4.80;;;1.80;;
15616;SDS011;7908;51.688;7.130;2023-08-07T14:15:54;5.10;;;2.20;;
15616;SDS011;7908;51.688;7.130;2023-08-07T14:18:23;6.63;;;2.00;;
15616;SDS011;7908;51.688;7.130;2023-08-07T14:20:55;5.23;;;2.40;;
15616;SDS011;7908;51.688;7.130;2023-08-07T14:23:29;5.47;;;2.03;;
15616;SDS011;7908;51.688;7.130;2023-08-07T14:26:00;5.77;;;1.93;;
15616;SDS011;7908;51.688;7.130;2023-08-07T14:28:29;4.70;;;1.70;;
15616;SDS011;7908;51.688;7.130;2023-08-07T14:30:58;6.47;;;1.77;;
15616;SDS011;7908;51.688;7.130;2023-08-07T14:33:28;7.10;;;2.00;;
15616;SDS011;7908;51.688;7.130;2023-08-07T14:36:00;4.37;;;1.77;;
15616;SDS011;7908;51.688;7.130;2023-08-07T14:38:31;6.27;;;2.00;;
15616;SDS011;7908;51.688;7.130;2023-08-07T14:41:06;5.80;;;2.10;;
15616;SDS011;7908;51.688;7.130;2023-08-07T14:43:35;4.90;;;1.87;;
15616;SDS011;7908;51.688;7.130;2023-08-07T14:46:07;4.90;;;2.17;;
15616;SDS011;7908;51.688;7.130;2023-08-07T14:48:46;6.33;;;2.03;;
15616;SDS011;7908;51.688;7.130;2023-08-07T14:51:19;8.43;;;2.07;;
15616;SDS011;7908;51.688;7.130;2023-08-07T14:53:51;4.33;;;1.83;;
15616;SDS011;7908;51.688;7.130;2023-08-07T14:56:22;6.50;;;1.60;;
15616;SDS011;7908;51.688;7.130;2023-08-07T14:58:51;5.57;;;1.70;;
15616;SDS011;7908;51.688;7.130;2023-08-07T15:01:20;6.80;;;1.73;;
15616;SDS011;7908;51.688;7.130;2023-08-07T15:03:49;3.90;;;1.70;;
15616;SDS011;7908;51.688;7.130;2023-08-07T15:06:21;5.77;;;1.67;;
15616;SDS011;7908;51.688;7.130;2023-08-07T15:08:51;4.83;;;2.10;;
15616;SDS011;7908;51.688;7.130;2023-08-07T15:11:21;2.53;;;1.60;;
15616;SDS011;7908;51.688;7.130;2023-08-07T15:13:49;8.30;;;2.10;;
15616;SDS011;7908;51.688;7.130;2023-08-07T15:16:18;4.63;;;1.77;;